Currently 52°F in Hemet, California, USA
52°F
55°F / 51°F
calm
0.00"
Tuesday, May 11, 2021 5:39 AM PDT

Hemet, California Weather Summary
Last 36 Hours

Temperature Winds Hourly Humidity Dewpoint
Time Report Norm Report Norm Max Gusts Precip. Rpt. Norm Rpt. Norm Pressure
1Tue 05:39 AM  51.6°F  54°F  calm  calm  none  0.00"  82%  69%  46°F  44°F  29.92"
Tue 05:00 AM  51.4°F  55°F  calm  calm  none  0.00"  82%  68%  46°F  44°F  29.90"
3Tue 04:33 AM  50.7°F  55°F  calm  calm  none  ----  80%  68%  45°F  44°F  29.90"
Tue 04:00 AM  51.4°F  55°F  calm  calm  none  0.00"  80%  68%  45°F  44°F  29.90"
Tue 03:00 AM  52.5°F  56°F  calm  calm  none  0.00"  78%  67%  46°F  44°F  29.90"
Tue 02:00 AM  52.9°F  56°F  calm  calm  none  0.00"  78%  67%  46°F  45°F  29.91"
Tue 01:00 AM  54.0°F  57°F  calm  calm  none  0.00"  77%  66%  47°F  45°F  29.93"
2Tue 12:02 AM  54.7°F  58°F  calm  calm  none  ----  75%  65%  47°F  46°F  29.94"
Tue 12:01 AM  54.5°F  58°F  calm  calm  none  0.00"  75%  65%  46°F  46°F  29.94"
Mon 11:00 PM  56.5°F  59°F  calm  calm  none  0.00"  71%  63%  47°F  46°F  29.93"
Mon 10:00 PM  58.6°F  60°F  calm  calm  3 mph  0.00"  68%  61%  48°F  46°F  29.93"
Mon 09:00 PM  60.4°F  63°F  calm  calm  5 mph  0.00"  64%  57%  48°F  47°F  29.93"
Mon 08:00 PM  63.3°F  66°F  1 mph SW  1 mph  7 mph  0.00"  59%  52%  48°F  47°F  29.91"
Mon 07:00 PM  70.2°F  70°F  3 mph SW  2 mph  8 mph  0.00"  48%  46%  49°F  47°F  29.89"
Mon 06:00 PM  74.7°F  73°F  4 mph SW  3 mph  9 mph  0.00"  43%  41%  50°F  47°F  29.88"
Mon 05:00 PM  76.5°F  76°F  4 mph W  4 mph  9 mph  0.00"  35%  37%  46°F  46°F  29.88"
Mon 04:00 PM  77.7°F  77°F  2 mph W  4 mph  12 mph  0.00"  31%  34%  44°F  46°F  29.88"
Mon 03:00 PM  76.1°F  77°F  3 mph SW  3 mph  13 mph  0.00"  33%  33%  44°F  45°F  29.89"
Mon 02:00 PM  73.2°F  76°F  1 mph SW  3 mph  10 mph  0.00"  42%  33%  48°F  44°F  29.89"
Mon 01:00 PM  69.6°F  74°F  1 mph W  2 mph  9 mph  0.00"  50%  37%  49°F  45°F  29.90"
Mon 12:00 PM  66.6°F  72°F  2 mph W  2 mph  8 mph  0.00"  54%  41%  49°F  46°F  29.91"
Mon 11:00 AM  61.5°F  69°F  2 mph SW  1 mph  6 mph  0.00"  65%  47%  49°F  47°F  29.92"
Mon 10:00 AM  55.8°F  65°F  1 mph W  1 mph  5 mph  0.00"  80%  53%  49°F  47°F  29.92"
Mon 09:00 AM  54.5°F  61°F  calm  calm  3 mph  0.00"  83%  60%  49°F  47°F  29.92"
Mon 08:00 AM  54.3°F  58°F  calm  calm  2 mph  0.00"  83%  66%  49°F  46°F  29.91"
Mon 07:00 AM  53.1°F  55°F  calm  calm  2 mph  0.00"  83%  67%  48°F  44°F  29.89"
Mon 06:00 AM  52.9°F  54°F  calm  calm  2 mph  0.00"  84%  67%  48°F  43°F  29.88"
Mon 05:00 AM  52.9°F  55°F  calm  calm  2 mph  0.00"  85%  67%  48°F  43°F  29.87"
Mon 04:00 AM  53.2°F  55°F  calm  calm  1 mph  0.00"  85%  67%  49°F  44°F  29.87"
Mon 03:00 AM  53.4°F  56°F  calm  calm  1 mph  0.00"  85%  66%  49°F  44°F  29.87"
Mon 02:00 AM  53.6°F  56°F  calm  calm  2 mph  0.00"  83%  66%  48°F  45°F  29.89"
Mon 01:00 AM  53.2°F  57°F  calm  calm  2 mph  0.00"  81%  65%  47°F  45°F  29.91"
Mon 12:01 AM  55.4°F  58°F  calm  calm  2 mph  0.00"  77%  64%  48°F  45°F  29.92"
Sun 11:00 PM  57.6°F  59°F  calm  calm  5 mph  0.00"  71%  63%  48°F  46°F  29.91"
Sun 10:00 PM  59.7°F  61°F  calm  calm  2 mph  0.00"  67%  61%  48°F  46°F  29.91"
Sun 09:00 PM  62.4°F  63°F  calm  calm  3 mph  0.00"  62%  56%  49°F  47°F  29.89"
Sun 08:00 PM  65.3°F  66°F  1 mph W  1 mph  6 mph  0.00"  57%  52%  49°F  47°F  29.87"
Sun 07:00 PM  72.1°F  70°F  3 mph SW  2 mph  9 mph  0.00"  46%  46%  49°F  47°F  29.85"
Sun 06:00 PM  78.3°F  73°F  3 mph SW  3 mph  10 mph  0.00"  37%  41%  49°F  47°F  29.83"

  1. Current weather data. No green row appears if the current weather data is also the high or low for the current day.
  2. High temperature for the current day.
  3. Low temperature for the current day.

The Hemet weather pages are a service of WeatherCurrents. Hemet, California is located in the San Jacinto Valley, in western Riverside County, at the foot of the San Jacinto mountains.
Copyright ©2021  WeatherCurrents. All rights reserved. - Submit questions and comments - Privacy Policy

This page automatically refreshes every 10 minutes.